sensor_id;sensor_type;location;lat;lon;timestamp;pressure;altitude;pressure_sealevel;temperature;humidity
37304;BME280;23188;51.188;16.374;2023-02-13T00:02:17;102320.70;;;7.25;99.99
37304;BME280;23188;51.188;16.374;2023-02-13T00:06:20;102322.28;;;7.10;100.00
37304;BME280;23188;51.188;16.374;2023-02-13T00:10:23;102315.46;;;7.19;100.00
37304;BME280;23188;51.188;16.374;2023-02-13T00:14:26;102310.06;;;7.26;100.00
37304;BME280;23188;51.188;16.374;2023-02-13T00:18:32;102306.29;;;7.24;100.00
37304;BME280;23188;51.188;16.374;2023-02-13T00:22:37;102302.52;;;7.24;100.00
37304;BME280;23188;51.188;16.374;2023-02-13T00:26:40;102303.88;;;7.11;100.00
37304;BME280;23188;51.188;16.374;2023-02-13T00:30:43;102307.05;;;6.85;100.00
37304;BME280;23188;51.188;16.374;2023-02-13T00:34:46;102308.67;;;6.68;100.00
37304;BME280;23188;51.188;16.374;2023-02-13T00:38:48;102311.08;;;6.65;100.00
37304;BME280;23188;51.188;16.374;2023-02-13T00:42:50;102313.17;;;6.60;100.00
37304;BME280;23188;51.188;16.374;2023-02-13T00:46:52;102314.42;;;6.60;100.00
37304;BME280;23188;51.188;16.374;2023-02-13T00:50:56;102315.12;;;6.65;100.00
37304;BME280;23188;51.188;16.374;2023-02-13T00:54:58;102312.48;;;6.76;100.00
37304;BME280;23188;51.188;16.374;2023-02-13T00:59:00;102314.06;;;6.87;100.00
37304;BME280;23188;51.188;16.374;2023-02-13T01:03:02;102319.30;;;6.88;100.00
37304;BME280;23188;51.188;16.374;2023-02-13T01:07:05;102319.12;;;6.78;100.00
37304;BME280;23188;51.188;16.374;2023-02-13T01:11:07;102321.20;;;6.79;100.00
37304;BME280;23188;51.188;16.374;2023-02-13T01:15:09;102311.16;;;6.84;100.00
37304;BME280;23188;51.188;16.374;2023-02-13T01:19:11;102304.71;;;6.87;100.00
37304;BME280;23188;51.188;16.374;2023-02-13T01:23:14;102298.42;;;6.58;100.00
37304;BME280;23188;51.188;16.374;2023-02-13T01:27:16;102292.59;;;6.37;100.00
37304;BME280;23188;51.188;16.374;2023-02-13T01:31:19;102291.49;;;6.27;100.00
37304;BME280;23188;51.188;16.374;2023-02-13T01:35:22;102296.46;;;6.25;100.00
37304;BME280;23188;51.188;16.374;2023-02-13T01:39:24;102296.54;;;6.23;100.00
37304;BME280;23188;51.188;16.374;2023-02-13T01:43:58;102288.25;;;6.35;100.00
37304;BME280;23188;51.188;16.374;2023-02-13T01:48:06;102280.67;;;6.51;100.00
37304;BME280;23188;51.188;16.374;2023-02-13T01:52:13;102279.34;;;6.65;100.00
37304;BME280;23188;51.188;16.374;2023-02-13T01:56:38;102274.66;;;6.78;100.00
37304;BME280;23188;51.188;16.374;2023-02-13T02:00:42;102272.95;;;6.82;100.00
37304;BME280;23188;51.188;16.374;2023-02-13T02:04:50;102272.92;;;6.88;100.00
37304;BME280;23188;51.188;16.374;2023-02-13T02:08:54;102271.49;;;6.99;100.00
37304;BME280;23188;51.188;16.374;2023-02-13T02:13:12;102265.27;;;7.05;100.00
37304;BME280;23188;51.188;16.374;2023-02-13T02:17:15;102258.55;;;7.06;100.00
37304;BME280;23188;51.188;16.374;2023-02-13T02:21:46;102261.14;;;7.08;100.00
37304;BME280;23188;51.188;16.374;2023-02-13T02:39:13;102262.95;;;7.12;100.00
37304;BME280;23188;51.188;16.374;2023-02-13T02:43:52;102268.08;;;6.96;100.00
37304;BME280;23188;51.188;16.374;2023-02-13T02:48:04;102270.27;;;6.83;100.00
37304;BME280;23188;51.188;16.374;2023-02-13T02:52:33;102276.02;;;6.64;100.00
37304;BME280;23188;51.188;16.374;2023-02-13T02:56:41;102274.98;;;6.58;100.00
37304;BME280;23188;51.188;16.374;2023-02-13T03:00:45;102265.56;;;6.66;100.00
37304;BME280;23188;51.188;16.374;2023-02-13T03:05:15;102270.30;;;6.56;100.00
37304;BME280;23188;51.188;16.374;2023-02-13T03:09:42;102265.52;;;6.51;100.00
37304;BME280;23188;51.188;16.374;2023-02-13T03:14:04;102255.02;;;6.65;100.00
37304;BME280;23188;51.188;16.374;2023-02-13T03:18:07;102252.97;;;6.78;100.00
37304;BME280;23188;51.188;16.374;2023-02-13T03:26:56;102253.13;;;6.94;100.00
37304;BME280;23188;51.188;16.374;2023-02-13T03:31:23;102258.63;;;7.04;100.00
37304;BME280;23188;51.188;16.374;2023-02-13T03:40:16;102258.79;;;7.19;100.00
37304;BME280;23188;51.188;16.374;2023-02-13T03:48:49;102255.46;;;7.34;100.00
37304;BME280;23188;51.188;16.374;2023-02-13T03:53:12;102254.00;;;7.34;100.00
37304;BME280;23188;51.188;16.374;2023-02-13T03:57:18;102252.72;;;7.35;100.00
37304;BME280;23188;51.188;16.374;2023-02-13T04:06:03;102252.63;;;7.38;100.00
37304;BME280;23188;51.188;16.374;2023-02-13T04:10:13;102250.84;;;7.39;100.00
37304;BME280;23188;51.188;16.374;2023-02-13T04:14:24;102250.60;;;7.41;100.00
37304;BME280;23188;51.188;16.374;2023-02-13T04:18:29;102252.77;;;7.35;100.00
37304;BME280;23188;51.188;16.374;2023-02-13T04:22:33;102249.91;;;7.16;100.00
37304;BME280;23188;51.188;16.374;2023-02-13T04:26:38;102252.89;;;7.07;100.00
37304;BME280;23188;51.188;16.374;2023-02-13T04:30:42;102249.70;;;6.97;100.00
37304;BME280;23188;51.188;16.374;2023-02-13T04:34:44;102246.58;;;6.90;100.00
37304;BME280;23188;51.188;16.374;2023-02-13T04:38:47;102239.30;;;6.96;100.00
37304;BME280;23188;51.188;16.374;2023-02-13T04:42:49;102239.61;;;6.98;100.00
37304;BME280;23188;51.188;16.374;2023-02-13T04:46:52;102238.27;;;7.01;100.00
37304;BME280;23188;51.188;16.374;2023-02-13T04:50:56;102236.71;;;7.00;100.00
37304;BME280;23188;51.188;16.374;2023-02-13T04:54:58;102239.77;;;6.98;100.00
37304;BME280;23188;51.188;16.374;2023-02-13T04:59:01;102236.61;;;7.02;100.00
37304;BME280;23188;51.188;16.374;2023-02-13T05:03:05;102238.38;;;7.03;100.00
37304;BME280;23188;51.188;16.374;2023-02-13T05:07:07;102236.13;;;7.01;100.00
37304;BME280;23188;51.188;16.374;2023-02-13T05:11:09;102236.89;;;7.00;100.00
37304;BME280;23188;51.188;16.374;2023-02-13T05:15:11;102233.33;;;7.06;100.00
37304;BME280;23188;51.188;16.374;2023-02-13T05:19:13;102238.55;;;7.08;100.00
37304;BME280;23188;51.188;16.374;2023-02-13T05:23:15;102236.73;;;7.04;100.00
37304;BME280;23188;51.188;16.374;2023-02-13T05:27:26;102229.76;;;7.07;100.00
37304;BME280;23188;51.188;16.374;2023-02-13T05:31:28;102233.20;;;7.10;100.00
37304;BME280;23188;51.188;16.374;2023-02-13T05:35:30;102234.58;;;7.10;100.00
37304;BME280;23188;51.188;16.374;2023-02-13T05:39:32;102234.27;;;7.10;100.00
37304;BME280;23188;51.188;16.374;2023-02-13T05:43:34;102237.33;;;7.12;100.00
37304;BME280;23188;51.188;16.374;2023-02-13T05:47:36;102232.87;;;7.14;100.00
37304;BME280;23188;51.188;16.374;2023-02-13T05:51:38;102231.51;;;7.17;100.00
37304;BME280;23188;51.188;16.374;2023-02-13T05:55:39;102230.34;;;7.20;100.00
37304;BME280;23188;51.188;16.374;2023-02-13T05:59:41;102244.52;;;7.09;100.00
37304;BME280;23188;51.188;16.374;2023-02-13T06:03:43;102248.80;;;7.02;100.00
37304;BME280;23188;51.188;16.374;2023-02-13T06:07:45;102254.65;;;7.02;100.00
37304;BME280;23188;51.188;16.374;2023-02-13T06:11:47;102257.30;;;7.01;100.00
37304;BME280;23188;51.188;16.374;2023-02-13T06:15:48;102258.42;;;7.05;100.00
37304;BME280;23188;51.188;16.374;2023-02-13T06:19:51;102254.66;;;7.06;100.00
37304;BME280;23188;51.188;16.374;2023-02-13T06:23:53;102261.77;;;7.05;100.00
37304;BME280;23188;51.188;16.374;2023-02-13T06:27:55;102256.27;;;7.06;100.00
37304;BME280;23188;51.188;16.374;2023-02-13T06:31:57;102260.55;;;7.10;100.00
37304;BME280;23188;51.188;16.374;2023-02-13T06:36:00;102266.84;;;7.11;100.00
37304;BME280;23188;51.188;16.374;2023-02-13T06:40:02;102270.95;;;7.15;100.00
37304;BME280;23188;51.188;16.374;2023-02-13T06:44:05;102273.83;;;7.19;100.00
37304;BME280;23188;51.188;16.374;2023-02-13T06:48:08;102277.31;;;7.24;100.00
37304;BME280;23188;51.188;16.374;2023-02-13T06:52:10;102276.41;;;7.24;100.00
37304;BME280;23188;51.188;16.374;2023-02-13T06:56:12;102280.92;;;7.32;100.00
37304;BME280;23188;51.188;16.374;2023-02-13T07:00:15;102280.92;;;7.32;100.00
37304;BME280;23188;51.188;16.374;2023-02-13T07:04:17;102280.88;;;7.33;100.00
37304;BME280;23188;51.188;16.374;2023-02-13T07:08:19;102284.52;;;7.35;100.00
37304;BME280;23188;51.188;16.374;2023-02-13T07:12:21;102284.84;;;7.36;100.00
37304;BME280;23188;51.188;16.374;2023-02-13T07:16:23;102279.59;;;7.40;100.00
37304;BME280;23188;51.188;16.374;2023-02-13T07:20:26;102285.79;;;7.39;100.00
37304;BME280;23188;51.188;16.374;2023-02-13T07:24:28;102281.05;;;7.38;100.00
37304;BME280;23188;51.188;16.374;2023-02-13T07:28:30;102279.33;;;7.42;100.00
37304;BME280;23188;51.188;16.374;2023-02-13T07:32:32;102287.93;;;7.43;100.00
37304;BME280;23188;51.188;16.374;2023-02-13T07:36:34;102287.75;;;7.43;100.00
37304;BME280;23188;51.188;16.374;2023-02-13T07:40:36;102277.71;;;7.48;100.00
37304;BME280;23188;51.188;16.374;2023-02-13T07:44:38;102275.29;;;7.46;100.00
37304;BME280;23188;51.188;16.374;2023-02-13T07:48:40;102276.80;;;7.39;100.00
37304;BME280;23188;51.188;16.374;2023-02-13T07:52:41;102285.11;;;7.33;100.00
37304;BME280;23188;51.188;16.374;2023-02-13T07:56:43;102291.08;;;7.24;100.00
37304;BME280;23188;51.188;16.374;2023-02-13T08:00:45;102293.85;;;7.16;100.00
37304;BME280;23188;51.188;16.374;2023-02-13T08:04:47;102289.16;;;7.23;100.00
37304;BME280;23188;51.188;16.374;2023-02-13T08:08:49;102289.77;;;7.22;100.00
37304;BME280;23188;51.188;16.374;2023-02-13T08:13:11;102291.51;;;7.27;100.00
37304;BME280;23188;51.188;16.374;2023-02-13T08:17:14;102288.76;;;7.25;100.00
37304;BME280;23188;51.188;16.374;2023-02-13T08:21:16;102296.40;;;7.23;100.00
37304;BME280;23188;51.188;16.374;2023-02-13T08:25:17;102295.44;;;7.31;100.00
37304;BME280;23188;51.188;16.374;2023-02-13T08:29:20;102293.59;;;7.33;100.00
37304;BME280;23188;51.188;16.374;2023-02-13T08:33:22;102296.52;;;7.30;100.00
37304;BME280;23188;51.188;16.374;2023-02-13T08:37:24;102296.45;;;7.42;100.00
37304;BME280;23188;51.188;16.374;2023-02-13T08:41:26;102304.18;;;7.43;100.00
37304;BME280;23188;51.188;16.374;2023-02-13T08:45:29;102304.04;;;7.47;100.00
37304;BME280;23188;51.188;16.374;2023-02-13T08:49:31;102312.63;;;7.49;100.00
37304;BME280;23188;51.188;16.374;2023-02-13T08:53:34;102321.10;;;7.49;100.00
37304;BME280;23188;51.188;16.374;2023-02-13T08:57:36;102326.33;;;7.46;100.00
37304;BME280;23188;51.188;16.374;2023-02-13T09:01:38;102332.80;;;7.48;100.00
37304;BME280;23188;51.188;16.374;2023-02-13T09:05:41;102336.23;;;7.40;100.00
37304;BME280;23188;51.188;16.374;2023-02-13T09:09:43;102342.13;;;7.28;100.00
37304;BME280;23188;51.188;16.374;2023-02-13T09:13:45;102347.30;;;7.27;100.00
37304;BME280;23188;51.188;16.374;2023-02-13T09:17:49;102349.75;;;7.22;100.00
37304;BME280;23188;51.188;16.374;2023-02-13T09:21:51;102346.56;;;7.17;100.00
37304;BME280;23188;51.188;16.374;2023-02-13T09:25:52;102352.30;;;7.20;100.00
37304;BME280;23188;51.188;16.374;2023-02-13T09:29:55;102352.69;;;7.24;100.00
37304;BME280;23188;51.188;16.374;2023-02-13T09:33:56;102353.25;;;7.28;100.00
37304;BME280;23188;51.188;16.374;2023-02-13T09:37:59;102354.54;;;7.32;100.00
37304;BME280;23188;51.188;16.374;2023-02-13T09:42:01;102362.91;;;7.45;100.00
37304;BME280;23188;51.188;16.374;2023-02-13T09:46:12;102364.13;;;7.45;100.00
37304;BME280;23188;51.188;16.374;2023-02-13T09:50:27;102365.13;;;7.51;100.00
37304;BME280;23188;51.188;16.374;2023-02-13T09:54:30;102360.75;;;7.46;100.00
37304;BME280;23188;51.188;16.374;2023-02-13T09:58:39;102356.98;;;7.62;100.00
37304;BME280;23188;51.188;16.374;2023-02-13T10:02:56;102360.87;;;7.67;100.00
37304;BME280;23188;51.188;16.374;2023-02-13T10:07:14;102364.99;;;7.80;100.00
37304;BME280;23188;51.188;16.374;2023-02-13T10:11:27;102363.80;;;7.94;100.00
37304;BME280;23188;51.188;16.374;2023-02-13T10:15:45;102365.83;;;7.92;100.00
37304;BME280;23188;51.188;16.374;2023-02-13T10:19:53;102357.80;;;8.08;100.00
37304;BME280;23188;51.188;16.374;2023-02-13T10:24:04;102358.55;;;8.16;100.00
37304;BME280;23188;51.188;16.374;2023-02-13T10:28:18;102361.95;;;8.05;100.00
37304;BME280;23188;51.188;16.374;2023-02-13T10:36:52;102350.91;;;8.07;100.00
37304;BME280;23188;51.188;16.374;2023-02-13T10:54:17;102331.88;;;8.29;99.04
37304;BME280;23188;51.188;16.374;2023-02-13T11:02:54;102316.80;;;8.48;99.42
37304;BME280;23188;51.188;16.374;2023-02-13T11:07:02;102324.02;;;8.40;96.69
37304;BME280;23188;51.188;16.374;2023-02-13T11:11:34;102324.16;;;8.27;96.37
37304;BME280;23188;51.188;16.374;2023-02-13T11:15:36;102317.34;;;8.21;98.85
37304;BME280;23188;51.188;16.374;2023-02-13T11:19:46;102314.09;;;8.05;98.12
37304;BME280;23188;51.188;16.374;2023-02-13T11:23:53;102311.23;;;7.96;99.73
37304;BME280;23188;51.188;16.374;2023-02-13T11:28:09;102301.86;;;8.01;100.00
37304;BME280;23188;51.188;16.374;2023-02-13T11:32:23;102301.04;;;8.08;100.00
37304;BME280;23188;51.188;16.374;2023-02-13T11:36:31;102302.15;;;8.25;99.84
37304;BME280;23188;51.188;16.374;2023-02-13T11:40:33;102297.17;;;8.26;99.92
37304;BME280;23188;51.188;16.374;2023-02-13T11:44:35;102295.31;;;8.19;100.00
37304;BME280;23188;51.188;16.374;2023-02-13T11:48:36;102289.29;;;8.20;99.95
37304;BME280;23188;51.188;16.374;2023-02-13T11:52:38;102291.58;;;8.15;99.57
37304;BME280;23188;51.188;16.374;2023-02-13T11:56:49;102288.48;;;8.13;98.63
37304;BME280;23188;51.188;16.374;2023-02-13T12:01:25;102287.40;;;8.14;97.63
37304;BME280;23188;51.188;16.374;2023-02-13T12:05:29;102288.52;;;8.21;98.17
37304;BME280;23188;51.188;16.374;2023-02-13T12:09:31;102285.36;;;8.21;98.34
37304;BME280;23188;51.188;16.374;2023-02-13T12:13:36;102287.25;;;8.18;98.49
37304;BME280;23188;51.188;16.374;2023-02-13T12:17:42;102283.61;;;8.33;98.63
37304;BME280;23188;51.188;16.374;2023-02-13T12:22:14;102287.38;;;8.37;98.35
37304;BME280;23188;51.188;16.374;2023-02-13T12:26:25;102287.52;;;8.33;97.13
37304;BME280;23188;51.188;16.374;2023-02-13T12:35:13;102273.73;;;8.29;96.82
37304;BME280;23188;51.188;16.374;2023-02-13T12:39:34;102270.75;;;8.19;99.19
37304;BME280;23188;51.188;16.374;2023-02-13T12:48:03;102272.20;;;8.18;99.16
37304;BME280;23188;51.188;16.374;2023-02-13T13:09:11;102249.36;;;8.24;100.00
37304;BME280;23188;51.188;16.374;2023-02-13T13:13:34;102255.66;;;8.21;100.00
37304;BME280;23188;51.188;16.374;2023-02-13T13:17:46;102252.50;;;8.11;100.00
37304;BME280;23188;51.188;16.374;2023-02-13T13:26:51;102255.59;;;8.32;100.00
37304;BME280;23188;51.188;16.374;2023-02-13T13:30:36;102254.48;;;8.37;99.73
37304;BME280;23188;51.188;16.374;2023-02-13T13:34:39;102261.48;;;8.39;99.40
37304;BME280;23188;51.188;16.374;2023-02-13T13:47:01;102262.81;;;8.45;96.51
37304;BME280;23188;51.188;16.374;2023-02-13T13:51:06;102255.41;;;8.49;96.38
37304;BME280;23188;51.188;16.374;2023-02-13T14:04:00;102263.98;;;8.38;98.29
37304;BME280;23188;51.188;16.374;2023-02-13T14:12:49;102244.54;;;8.38;98.88
37304;BME280;23188;51.188;16.374;2023-02-13T14:16:51;102232.86;;;8.60;99.42
37304;BME280;23188;51.188;16.374;2023-02-13T14:20:56;102229.23;;;8.71;98.56
37304;BME280;23188;51.188;16.374;2023-02-13T14:25:03;102225.23;;;8.82;97.97
37304;BME280;23188;51.188;16.374;2023-02-13T14:33:25;102222.77;;;8.81;96.52
37304;BME280;23188;51.188;16.374;2023-02-13T14:37:36;102223.04;;;8.83;96.25
37304;BME280;23188;51.188;16.374;2023-02-13T14:42:20;102220.41;;;8.87;95.95
37304;BME280;23188;51.188;16.374;2023-02-13T14:46:23;102214.66;;;8.89;96.51
37304;BME280;23188;51.188;16.374;2023-02-13T14:50:29;102212.53;;;8.89;97.26
37304;BME280;23188;51.188;16.374;2023-02-13T14:54:45;102208.77;;;8.86;97.59
37304;BME280;23188;51.188;16.374;2023-02-13T14:59:04;102202.91;;;8.79;97.45
37304;BME280;23188;51.188;16.374;2023-02-13T15:03:36;102203.75;;;8.71;97.53
37304;BME280;23188;51.188;16.374;2023-02-13T15:08:16;102193.67;;;8.67;98.75
37304;BME280;23188;51.188;16.374;2023-02-13T15:12:34;102184.30;;;8.54;99.81
37304;BME280;23188;51.188;16.374;2023-02-13T15:16:37;102172.01;;;8.57;100.00
37304;BME280;23188;51.188;16.374;2023-02-13T15:20:40;102162.41;;;8.58;100.00
37304;BME280;23188;51.188;16.374;2023-02-13T15:24:46;102164.46;;;8.55;100.00
37304;BME280;23188;51.188;16.374;2023-02-13T15:28:59;102158.11;;;8.55;100.00
37304;BME280;23188;51.188;16.374;2023-02-13T15:33:16;102168.80;;;8.49;100.00
37304;BME280;23188;51.188;16.374;2023-02-13T15:37:23;102167.24;;;8.48;100.00
37304;BME280;23188;51.188;16.374;2023-02-13T15:41:34;102159.50;;;8.42;100.00
37304;BME280;23188;51.188;16.374;2023-02-13T15:45:42;102163.52;;;8.39;100.00
37304;BME280;23188;51.188;16.374;2023-02-13T15:49:46;102163.62;;;8.37;100.00
37304;BME280;23188;51.188;16.374;2023-02-13T15:53:53;102159.63;;;8.31;100.00
37304;BME280;23188;51.188;16.374;2023-02-13T15:57:58;102160.95;;;8.25;100.00
37304;BME280;23188;51.188;16.374;2023-02-13T16:02:02;102154.75;;;8.21;100.00
37304;BME280;23188;51.188;16.374;2023-02-13T16:06:06;102146.79;;;8.17;100.00
37304;BME280;23188;51.188;16.374;2023-02-13T16:10:17;102145.65;;;8.14;100.00
37304;BME280;23188;51.188;16.374;2023-02-13T16:14:27;102139.91;;;8.12;100.00
37304;BME280;23188;51.188;16.374;2023-02-13T16:18:30;102138.60;;;8.09;100.00
37304;BME280;23188;51.188;16.374;2023-02-13T16:22:44;102147.24;;;8.10;100.00
37304;BME280;23188;51.188;16.374;2023-02-13T16:26:47;102150.02;;;8.11;100.00
37304;BME280;23188;51.188;16.374;2023-02-13T16:30:53;102160.27;;;8.11;100.00
37304;BME280;23188;51.188;16.374;2023-02-13T16:35:16;102157.29;;;8.10;100.00
37304;BME280;23188;51.188;16.374;2023-02-13T16:39:29;102160.02;;;8.09;100.00
37304;BME280;23188;51.188;16.374;2023-02-13T16:43:36;102173.31;;;8.03;100.00
37304;BME280;23188;51.188;16.374;2023-02-13T16:47:38;102156.90;;;7.98;100.00
37304;BME280;23188;51.188;16.374;2023-02-13T16:51:47;102147.30;;;8.00;100.00
37304;BME280;23188;51.188;16.374;2023-02-13T16:55:58;102159.70;;;7.90;100.00
37304;BME280;23188;51.188;16.374;2023-02-13T17:04:20;102167.23;;;7.87;100.00
37304;BME280;23188;51.188;16.374;2023-02-13T17:08:23;102168.57;;;7.80;100.00
37304;BME280;23188;51.188;16.374;2023-02-13T17:12:25;102176.88;;;7.76;100.00
37304;BME280;23188;51.188;16.374;2023-02-13T17:16:28;102166.86;;;7.75;100.00
37304;BME280;23188;51.188;16.374;2023-02-13T17:20:32;102173.91;;;7.66;99.96
37304;BME280;23188;51.188;16.374;2023-02-13T17:24:34;102165.59;;;7.71;100.00
37304;BME280;23188;51.188;16.374;2023-02-13T17:28:36;102163.27;;;7.67;100.00
37304;BME280;23188;51.188;16.374;2023-02-13T17:32:38;102155.97;;;7.73;100.00
37304;BME280;23188;51.188;16.374;2023-02-13T17:36:40;102152.05;;;7.78;100.00
37304;BME280;23188;51.188;16.374;2023-02-13T17:40:43;102147.15;;;7.81;99.99
37304;BME280;23188;51.188;16.374;2023-02-13T17:44:45;102151.65;;;7.79;99.86
37304;BME280;23188;51.188;16.374;2023-02-13T17:48:47;102144.84;;;7.82;99.84
37304;BME280;23188;51.188;16.374;2023-02-13T17:52:49;102133.27;;;7.80;99.89
37304;BME280;23188;51.188;16.374;2023-02-13T17:56:51;102131.84;;;7.76;99.92
37304;BME280;23188;51.188;16.374;2023-02-13T18:00:54;102139.98;;;7.75;99.93
37304;BME280;23188;51.188;16.374;2023-02-13T18:04:56;102137.59;;;7.73;99.91
37304;BME280;23188;51.188;16.374;2023-02-13T18:08:58;102148.34;;;7.56;99.88
37304;BME280;23188;51.188;16.374;2023-02-13T18:13:00;102152.73;;;7.43;100.00
37304;BME280;23188;51.188;16.374;2023-02-13T18:17:05;102164.02;;;7.34;100.00
37304;BME280;23188;51.188;16.374;2023-02-13T18:21:07;102155.52;;;7.34;100.00
37304;BME280;23188;51.188;16.374;2023-02-13T18:25:11;102152.23;;;7.23;100.00
37304;BME280;23188;51.188;16.374;2023-02-13T18:29:13;102154.27;;;7.20;100.00
37304;BME280;23188;51.188;16.374;2023-02-13T18:33:15;102145.03;;;7.13;100.00
37304;BME280;23188;51.188;16.374;2023-02-13T18:37:18;102138.10;;;7.09;100.00
37304;BME280;23188;51.188;16.374;2023-02-13T18:41:21;102134.54;;;7.05;100.00
37304;BME280;23188;51.188;16.374;2023-02-13T18:45:23;102138.59;;;7.10;100.00
37304;BME280;23188;51.188;16.374;2023-02-13T18:49:25;102141.33;;;7.12;100.00
37304;BME280;23188;51.188;16.374;2023-02-13T18:53:28;102144.66;;;7.04;100.00
37304;BME280;23188;51.188;16.374;2023-02-13T18:57:30;102148.23;;;6.97;100.00
37304;BME280;23188;51.188;16.374;2023-02-13T19:01:32;102151.54;;;6.94;100.00
37304;BME280;23188;51.188;16.374;2023-02-13T19:05:39;102158.98;;;6.98;100.00
37304;BME280;23188;51.188;16.374;2023-02-13T19:09:41;102172.62;;;7.07;100.00
37304;BME280;23188;51.188;16.374;2023-02-13T19:13:45;102165.30;;;7.09;100.00
37304;BME280;23188;51.188;16.374;2023-02-13T19:17:47;102157.67;;;7.05;100.00
37304;BME280;23188;51.188;16.374;2023-02-13T19:21:49;102163.87;;;7.09;100.00
37304;BME280;23188;51.188;16.374;2023-02-13T19:25:51;102165.70;;;7.12;100.00
37304;BME280;23188;51.188;16.374;2023-02-13T19:29:53;102164.89;;;7.10;100.00
37304;BME280;23188;51.188;16.374;2023-02-13T19:33:55;102166.86;;;7.14;100.00
37304;BME280;23188;51.188;16.374;2023-02-13T19:38:00;102177.13;;;7.18;100.00
37304;BME280;23188;51.188;16.374;2023-02-13T19:42:02;102188.83;;;7.17;100.00
37304;BME280;23188;51.188;16.374;2023-02-13T19:46:06;102194.31;;;7.21;100.00
37304;BME280;23188;51.188;16.374;2023-02-13T19:50:13;102194.56;;;7.14;100.00
37304;BME280;23188;51.188;16.374;2023-02-13T19:54:17;102203.39;;;7.09;100.00
37304;BME280;23188;51.188;16.374;2023-02-13T19:58:19;102211.41;;;7.12;100.00
37304;BME280;23188;51.188;16.374;2023-02-13T20:02:20;102217.58;;;7.17;100.00
37304;BME280;23188;51.188;16.374;2023-02-13T20:06:31;102218.64;;;7.21;100.00
37304;BME280;23188;51.188;16.374;2023-02-13T20:10:35;102219.66;;;7.23;100.00
37304;BME280;23188;51.188;16.374;2023-02-13T20:14:37;102221.27;;;7.27;100.00
37304;BME280;23188;51.188;16.374;2023-02-13T20:18:41;102228.87;;;7.22;100.00
37304;BME280;23188;51.188;16.374;2023-02-13T20:22:47;102227.04;;;7.23;100.00
37304;BME280;23188;51.188;16.374;2023-02-13T20:26:49;102222.65;;;7.23;100.00
37304;BME280;23188;51.188;16.374;2023-02-13T20:30:51;102226.54;;;7.23;100.00
37304;BME280;23188;51.188;16.374;2023-02-13T20:34:53;102227.54;;;7.20;100.00
37304;BME280;23188;51.188;16.374;2023-02-13T20:39:03;102228.08;;;7.14;100.00
37304;BME280;23188;51.188;16.374;2023-02-13T20:43:05;102230.86;;;7.15;100.00
37304;BME280;23188;51.188;16.374;2023-02-13T20:47:07;102231.66;;;7.18;100.00
37304;BME280;23188;51.188;16.374;2023-02-13T20:51:11;102235.81;;;7.20;100.00
37304;BME280;23188;51.188;16.374;2023-02-13T20:55:14;102240.65;;;7.18;100.00
37304;BME280;23188;51.188;16.374;2023-02-13T20:59:16;102253.52;;;7.14;100.00
37304;BME280;23188;51.188;16.374;2023-02-13T21:03:17;102255.02;;;7.21;100.00
37304;BME280;23188;51.188;16.374;2023-02-13T21:07:19;102251.64;;;7.17;100.00
37304;BME280;23188;51.188;16.374;2023-02-13T21:11:22;102260.70;;;7.20;100.00
37304;BME280;23188;51.188;16.374;2023-02-13T21:15:26;102265.10;;;7.25;100.00
37304;BME280;23188;51.188;16.374;2023-02-13T21:19:28;102266.27;;;7.32;100.00
37304;BME280;23188;51.188;16.374;2023-02-13T21:23:32;102274.93;;;7.46;100.00
37304;BME280;23188;51.188;16.374;2023-02-13T21:27:34;102276.26;;;7.49;100.00
37304;BME280;23188;51.188;16.374;2023-02-13T21:31:39;102277.43;;;7.45;100.00
37304;BME280;23188;51.188;16.374;2023-02-13T21:35:44;102283.66;;;7.44;100.00
37304;BME280;23188;51.188;16.374;2023-02-13T21:39:46;102285.34;;;7.37;100.00
37304;BME280;23188;51.188;16.374;2023-02-13T21:43:49;102291.65;;;7.28;100.00
37304;BME280;23188;51.188;16.374;2023-02-13T21:47:55;102286.25;;;7.26;100.00
37304;BME280;23188;51.188;16.374;2023-02-13T21:51:57;102285.56;;;7.25;100.00
37304;BME280;23188;51.188;16.374;2023-02-13T21:56:08;102288.05;;;7.25;100.00
37304;BME280;23188;51.188;16.374;2023-02-13T22:00:11;102286.59;;;7.26;100.00
37304;BME280;23188;51.188;16.374;2023-02-13T22:04:16;102291.52;;;7.22;100.00
37304;BME280;23188;51.188;16.374;2023-02-13T22:08:18;102296.08;;;7.18;100.00
37304;BME280;23188;51.188;16.374;2023-02-13T22:12:19;102293.18;;;7.20;100.00
37304;BME280;23188;51.188;16.374;2023-02-13T22:16:22;102289.98;;;7.10;100.00
37304;BME280;23188;51.188;16.374;2023-02-13T22:20:24;102289.33;;;6.98;100.00
37304;BME280;23188;51.188;16.374;2023-02-13T22:24:26;102290.45;;;6.92;100.00
37304;BME280;23188;51.188;16.374;2023-02-13T22:28:28;102288.88;;;6.86;100.00
37304;BME280;23188;51.188;16.374;2023-02-13T22:32:30;102290.05;;;6.88;100.00
37304;BME280;23188;51.188;16.374;2023-02-13T22:36:34;102293.20;;;6.94;100.00
37304;BME280;23188;51.188;16.374;2023-02-13T22:40:38;102290.64;;;7.01;100.00
37304;BME280;23188;51.188;16.374;2023-02-13T22:44:40;102295.06;;;7.06;100.00
37304;BME280;23188;51.188;16.374;2023-02-13T22:48:42;102295.73;;;7.08;100.00
37304;BME280;23188;51.188;16.374;2023-02-13T22:52:46;102292.37;;;7.02;100.00
37304;BME280;23188;51.188;16.374;2023-02-13T22:56:48;102293.64;;;7.01;100.00
37304;BME280;23188;51.188;16.374;2023-02-13T23:00:50;102291.56;;;7.00;100.00
37304;BME280;23188;51.188;16.374;2023-02-13T23:04:52;102289.98;;;7.00;98.64
37304;BME280;23188;51.188;16.374;2023-02-13T23:08:54;102289.98;;;7.00;98.71